Time;durP1;ratioP1;P1;durP2;ratioP2;P2;SDS_P1;SDS_P2;PMS_P1;PMS_P2;Temp;Humidity;BMP_temperature;BMP_pressure;BME280_temperature;BME280_humidity;BME280_pressure;Samples;Min_cycle;Max_cycle;Signal;HPM_P1;HPM_P2
2023/12/21 00:01:46;;;;;;;29.45;13.00;;;;;;;;;;5036398;28;25058;-69
2023/12/21 00:04:12;;;;;;;21.67;12.82;;;;;;;;;;5039342;28;25098;-71
2023/12/21 00:06:38;;;;;;;21.25;13.32;;;;;;;;;;5040743;28;25059;-70
2023/12/21 00:09:06;;;;;;;21.17;11.90;;;;;;;;;;5042005;28;25050;-69
2023/12/21 00:11:32;;;;;;;26.95;12.98;;;;;;;;;;5040520;28;25090;-69
2023/12/21 00:13:59;;;;;;;27.02;13.32;;;;;;;;;;5041533;28;25074;-69
2023/12/21 00:16:25;;;;;;;27.10;13.27;;;;;;;;;;5043923;28;25056;-69
2023/12/21 00:18:51;;;;;;;21.80;12.63;;;;;;;;;;5043803;28;25064;-69
2023/12/21 00:21:17;;;;;;;20.23;12.23;;;;;;;;;;5037169;28;25180;-69
2023/12/21 00:23:43;;;;;;;25.25;12.65;;;;;;;;;;5036233;28;25070;-69
2023/12/21 00:26:09;;;;;;;33.45;12.95;;;;;;;;;;5037105;28;25051;-69
2023/12/21 00:28:36;;;;;;;24.45;11.63;;;;;;;;;;5041685;28;25068;-70
2023/12/21 00:31:02;;;;;;;26.65;12.13;;;;;;;;;;5041989;28;25078;-70
2023/12/21 00:33:28;;;;;;;18.65;10.75;;;;;;;;;;5043199;28;25059;-69
2023/12/21 00:35:54;;;;;;;22.35;11.23;;;;;;;;;;5038680;28;25060;-70
2023/12/21 00:38:20;;;;;;;30.08;11.98;;;;;;;;;;5036807;28;25075;-69
2023/12/21 00:40:46;;;;;;;24.35;11.48;;;;;;;;;;5029971;28;25062;-71
2023/12/21 00:43:12;;;;;;;26.70;11.23;;;;;;;;;;5032746;28;25147;-70
2023/12/21 00:45:38;;;;;;;35.20;11.27;;;;;;;;;;5030745;28;25099;-70
2023/12/21 00:48:04;;;;;;;25.00;10.75;;;;;;;;;;5039084;28;25073;-69
2023/12/21 00:50:30;;;;;;;27.00;11.65;;;;;;;;;;5034595;28;25169;-71
2023/12/21 00:52:57;;;;;;;23.80;11.75;;;;;;;;;;5027467;28;25130;-69
2023/12/21 00:55:22;;;;;;;34.33;11.25;;;;;;;;;;5034210;28;25059;-70
2023/12/21 00:57:48;;;;;;;29.25;10.80;;;;;;;;;;5028041;28;25131;-69
2023/12/21 01:00:15;;;;;;;22.80;12.40;;;;;;;;;;5027763;28;25145;-69
2023/12/21 01:02:41;;;;;;;27.55;12.13;;;;;;;;;;5029549;28;25097;-69
2023/12/21 01:05:07;;;;;;;19.08;11.82;;;;;;;;;;5027276;28;25083;-70
2023/12/21 01:07:33;;;;;;;25.27;12.48;;;;;;;;;;5025338;28;25131;-68
2023/12/21 01:09:59;;;;;;;22.95;12.25;;;;;;;;;;5027547;28;25138;-69
2023/12/21 01:12:25;;;;;;;26.75;12.68;;;;;;;;;;5027125;28;25089;-69
2023/12/21 01:14:51;;;;;;;26.23;12.32;;;;;;;;;;5021494;28;25089;-69
2023/12/21 01:17:17;;;;;;;27.90;12.98;;;;;;;;;;5027984;28;25065;-71
2023/12/21 01:19:43;;;;;;;32.78;12.25;;;;;;;;;;5018919;28;25067;-69
2023/12/21 01:22:09;;;;;;;26.02;13.25;;;;;;;;;;5026227;28;25114;-69
2023/12/21 01:24:34;;;;;;;26.38;13.75;;;;;;;;;;5026957;28;25058;-70
2023/12/21 01:27:00;;;;;;;24.33;13.48;;;;;;;;;;5027551;28;25047;-70
2023/12/21 01:29:26;;;;;;;26.35;13.20;;;;;;;;;;5030334;28;25058;-69
2023/12/21 01:31:52;;;;;;;27.60;13.48;;;;;;;;;;5025163;28;25077;-68
2023/12/21 01:34:19;;;;;;;24.33;13.55;;;;;;;;;;5027982;28;25061;-69
2023/12/21 01:36:45;;;;;;;28.13;13.63;;;;;;;;;;5025918;28;25055;-70
2023/12/21 01:39:11;;;;;;;20.88;13.65;;;;;;;;;;5026849;28;25091;-69
2023/12/21 01:41:36;;;;;;;32.38;13.38;;;;;;;;;;5028269;28;25160;-69
2023/12/21 01:44:02;;;;;;;28.33;13.68;;;;;;;;;;5026908;28;25084;-70
2023/12/21 01:46:29;;;;;;;26.05;14.20;;;;;;;;;;5021802;28;25144;-68
2023/12/21 01:48:55;;;;;;;30.73;13.23;;;;;;;;;;5025209;28;25060;-69
2023/12/21 01:51:22;;;;;;;36.53;15.27;;;;;;;;;;5028536;28;25055;-71
2023/12/21 01:53:49;;;;;;;41.45;14.75;;;;;;;;;;5023930;28;25082;-68
2023/12/21 01:56:15;;;;;;;24.92;13.85;;;;;;;;;;5033814;28;25078;-68
2023/12/21 01:58:41;;;;;;;26.33;14.25;;;;;;;;;;5036107;28;25065;-69
2023/12/21 02:01:07;;;;;;;27.40;13.73;;;;;;;;;;5025468;28;25102;-70
2023/12/21 02:03:33;;;;;;;21.98;12.40;;;;;;;;;;5027584;28;25083;-69
2023/12/21 02:05:59;;;;;;;27.65;13.50;;;;;;;;;;5033837;28;25089;-70
2023/12/21 02:08:25;;;;;;;25.08;12.68;;;;;;;;;;5021407;28;25065;-69
2023/12/21 02:11:05;;;;;;;23.13;12.18;;;;;;;;;;5026398;28;25178;-69
2023/12/21 02:13:31;;;;;;;30.35;13.30;;;;;;;;;;5020911;28;25150;-69
2023/12/21 02:15:58;;;;;;;32.38;13.88;;;;;;;;;;5025994;28;25058;-69
2023/12/21 02:18:25;;;;;;;30.20;12.98;;;;;;;;;;5026600;28;25064;-69
2023/12/21 02:20:51;;;;;;;31.60;13.52;;;;;;;;;;5027664;28;25148;-69
2023/12/21 02:23:18;;;;;;;31.92;13.55;;;;;;;;;;5023977;28;25077;-68
2023/12/21 02:25:44;;;;;;;26.70;14.00;;;;;;;;;;5027125;28;25079;-69
2023/12/21 02:28:10;;;;;;;35.72;14.88;;;;;;;;;;5023510;28;25128;-69
2023/12/21 02:30:36;;;;;;;37.55;14.15;;;;;;;;;;5032447;28;25059;-69
2023/12/21 02:33:04;;;;;;;30.23;12.95;;;;;;;;;;5026165;28;25097;-69
2023/12/21 02:35:30;;;;;;;32.75;12.95;;;;;;;;;;5028097;28;25145;-67
2023/12/21 02:37:56;;;;;;;34.33;13.68;;;;;;;;;;5024496;28;25081;-70
2023/12/21 02:40:22;;;;;;;40.08;13.60;;;;;;;;;;5027490;28;26160;-69
2023/12/21 02:42:48;;;;;;;31.27;13.55;;;;;;;;;;5028304;28;25157;-69
2023/12/21 02:45:14;;;;;;;30.58;13.77;;;;;;;;;;5027427;28;25455;-69
2023/12/21 02:47:40;;;;;;;30.95;13.65;;;;;;;;;;5028152;28;25100;-69
2023/12/21 02:50:06;;;;;;;32.33;14.68;;;;;;;;;;5018914;28;25064;-69
2023/12/21 02:52:33;;;;;;;28.95;14.15;;;;;;;;;;5040557;28;25071;-70
2023/12/21 02:54:59;;;;;;;26.80;13.85;;;;;;;;;;5023873;28;25087;-71
2023/12/21 02:57:25;;;;;;;37.95;14.50;;;;;;;;;;5024326;28;25095;-70
2023/12/21 02:59:51;;;;;;;27.55;15.23;;;;;;;;;;5022607;28;25142;-68
2023/12/21 03:02:17;;;;;;;28.90;14.63;;;;;;;;;;5023998;28;25129;-68
2023/12/21 03:04:43;;;;;;;30.70;14.93;;;;;;;;;;5023764;28;25055;-71
2023/12/21 03:07:09;;;;;;;29.60;14.80;;;;;;;;;;5027756;28;25065;-70
2023/12/21 03:09:35;;;;;;;30.73;15.30;;;;;;;;;;5026205;28;25081;-71
2023/12/21 03:12:01;;;;;;;39.97;15.43;;;;;;;;;;5024133;28;25071;-70
2023/12/21 03:14:27;;;;;;;28.55;14.35;;;;;;;;;;5026298;28;25079;-69
2023/12/21 03:16:53;;;;;;;22.63;13.38;;;;;;;;;;5019669;28;25154;-69
2023/12/21 03:19:19;;;;;;;27.40;14.43;;;;;;;;;;5026332;28;25129;-70
2023/12/21 03:21:45;;;;;;;29.45;14.77;;;;;;;;;;5019181;28;25051;-70
2023/12/21 03:24:11;;;;;;;24.88;14.23;;;;;;;;;;5027588;28;25134;-70
2023/12/21 03:26:37;;;;;;;30.02;14.10;;;;;;;;;;5023540;28;25145;-70
2023/12/21 03:29:03;;;;;;;27.65;13.95;;;;;;;;;;5025004;28;25066;-71
2023/12/21 03:31:28;;;;;;;30.63;13.93;;;;;;;;;;5026771;28;25067;-70
2023/12/21 03:33:54;;;;;;;27.92;13.98;;;;;;;;;;5027595;28;25118;-71
2023/12/21 03:36:20;;;;;;;32.53;13.85;;;;;;;;;;5026735;28;25075;-70
2023/12/21 03:38:46;;;;;;;39.95;16.02;;;;;;;;;;5024983;28;25062;-69
2023/12/21 03:41:13;;;;;;;34.22;13.90;;;;;;;;;;5027063;28;25074;-69
2023/12/21 03:43:39;;;;;;;31.48;14.10;;;;;;;;;;5023293;28;25078;-69
2023/12/21 03:46:09;;;;;;;34.92;14.70;;;;;;;;;;5026806;28;25122;-68
2023/12/21 03:48:34;;;;;;;28.60;14.23;;;;;;;;;;5024748;28;25063;-72
2023/12/21 03:51:00;;;;;;;30.40;14.65;;;;;;;;;;5028992;28;25065;-70
2023/12/21 03:53:26;;;;;;;35.45;14.68;;;;;;;;;;5030006;28;25066;-69
2023/12/21 03:55:52;;;;;;;33.20;14.57;;;;;;;;;;5025034;28;25134;-71
2023/12/21 03:58:18;;;;;;;39.95;14.18;;;;;;;;;;5025328;28;25153;-70
2023/12/21 04:00:44;;;;;;;46.53;16.33;;;;;;;;;;5026595;28;25069;-70
2023/12/21 04:03:10;;;;;;;35.72;15.73;;;;;;;;;;5027409;28;25067;-70
2023/12/21 04:05:38;;;;;;;42.17;15.88;;;;;;;;;;5027398;28;25075;-70
2023/12/21 04:08:04;;;;;;;30.88;14.18;;;;;;;;;;5023619;28;25070;-69
2023/12/21 04:10:30;;;;;;;35.33;16.27;;;;;;;;;;5029995;28;25063;-70
2023/12/21 04:12:56;;;;;;;44.13;16.70;;;;;;;;;;5028460;28;25076;-69
2023/12/21 04:15:22;;;;;;;40.40;15.70;;;;;;;;;;5026194;28;25069;-69
2023/12/21 04:17:48;;;;;;;39.47;15.93;;;;;;;;;;5027977;28;25051;-69
2023/12/21 04:20:14;;;;;;;39.10;16.50;;;;;;;;;;5029037;28;25082;-70
2023/12/21 04:22:40;;;;;;;36.58;15.40;;;;;;;;;;5030530;28;25109;-69
2023/12/21 04:25:06;;;;;;;36.55;15.25;;;;;;;;;;5031025;28;25160;-70
2023/12/21 04:27:33;;;;;;;28.80;13.98;;;;;;;;;;5027539;28;25064;-68
2023/12/21 04:29:59;;;;;;;33.85;15.15;;;;;;;;;;5027143;28;25093;-70
2023/12/21 04:32:24;;;;;;;38.03;14.65;;;;;;;;;;5030283;28;25088;-71
2023/12/21 04:34:50;;;;;;;41.63;14.07;;;;;;;;;;5032160;28;25075;-69
2023/12/21 04:37:16;;;;;;;31.10;13.27;;;;;;;;;;5027482;28;25067;-70
2023/12/21 04:39:42;;;;;;;34.92;13.82;;;;;;;;;;5027622;28;25061;-72
2023/12/21 04:42:08;;;;;;;36.42;14.23;;;;;;;;;;5023831;28;25086;-70
2023/12/21 04:44:34;;;;;;;31.27;14.85;;;;;;;;;;5025273;28;25080;-69
2023/12/21 04:47:00;;;;;;;38.47;14.68;;;;;;;;;;5020517;28;25064;-71
2023/12/21 04:49:27;;;;;;;32.20;13.98;;;;;;;;;;5025494;28;25078;-70
2023/12/21 04:51:53;;;;;;;26.92;12.43;;;;;;;;;;5024602;28;25066;-70
2023/12/21 04:54:19;;;;;;;26.55;12.65;;;;;;;;;;5025645;28;25101;-69
2023/12/21 04:56:45;;;;;;;25.60;12.70;;;;;;;;;;5026771;28;25080;-70
2023/12/21 04:59:11;;;;;;;28.75;12.55;;;;;;;;;;5023256;28;25066;-70
2023/12/21 05:01:36;;;;;;;25.20;13.32;;;;;;;;;;5028521;28;25068;-70
2023/12/21 05:04:03;;;;;;;27.83;13.15;;;;;;;;;;5029323;28;25075;-70
2023/12/21 05:06:29;;;;;;;38.00;14.00;;;;;;;;;;5027787;28;25072;-70
2023/12/21 05:08:56;;;;;;;37.72;14.25;;;;;;;;;;5028034;28;25076;-70
2023/12/21 05:11:22;;;;;;;36.88;14.18;;;;;;;;;;5029274;28;24819;-70
2023/12/21 05:13:48;;;;;;;35.28;14.68;;;;;;;;;;5026812;28;25060;-69
2023/12/21 05:16:14;;;;;;;36.45;13.80;;;;;;;;;;5021425;28;25071;-69
2023/12/21 05:18:41;;;;;;;34.60;13.63;;;;;;;;;;5024582;28;25075;-71
2023/12/21 05:21:10;;;;;;;28.02;14.20;;;;;;;;;;5025299;28;25064;-72
2023/12/21 05:23:36;;;;;;;29.10;13.20;;;;;;;;;;5027595;28;25084;-69
2023/12/21 05:26:02;;;;;;;34.25;14.18;;;;;;;;;;5022755;28;25093;-70
2023/12/21 05:28:28;;;;;;;34.63;13.52;;;;;;;;;;5029918;28;25109;-69
2023/12/21 05:30:53;;;;;;;29.63;13.95;;;;;;;;;;5029640;28;25067;-67
2023/12/21 05:33:19;;;;;;;33.55;13.82;;;;;;;;;;5028356;28;25069;-69
2023/12/21 05:35:45;;;;;;;38.35;13.02;;;;;;;;;;5030690;28;25053;-70
2023/12/21 05:38:11;;;;;;;36.10;14.68;;;;;;;;;;5028864;28;25142;-70
2023/12/21 05:40:37;;;;;;;35.67;14.93;;;;;;;;;;5028664;28;25072;-69
2023/12/21 05:43:03;;;;;;;43.63;14.95;;;;;;;;;;5030252;28;25068;-69
2023/12/21 05:45:29;;;;;;;34.33;13.57;;;;;;;;;;5034353;28;25055;-69
2023/12/21 05:47:58;;;;;;;36.42;14.75;;;;;;;;;;5031978;28;25086;-71
2023/12/21 05:50:24;;;;;;;37.83;13.60;;;;;;;;;;5028303;28;25154;-70
2023/12/21 05:52:51;;;;;;;29.08;13.30;;;;;;;;;;5021098;28;25154;-71
2023/12/21 05:55:17;;;;;;;27.65;12.98;;;;;;;;;;5031700;28;25058;-70
2023/12/21 05:57:44;;;;;;;26.70;12.73;;;;;;;;;;5027124;28;25075;-71
2023/12/21 06:00:11;;;;;;;32.65;12.38;;;;;;;;;;5029475;28;25083;-70
2023/12/21 06:02:37;;;;;;;29.83;12.32;;;;;;;;;;5023519;28;25060;-70
2023/12/21 06:05:03;;;;;;;35.88;13.52;;;;;;;;;;5025770;28;25064;-69
2023/12/21 06:07:29;;;;;;;26.05;11.80;;;;;;;;;;5023866;28;25106;-72
2023/12/21 06:09:55;;;;;;;24.75;12.35;;;;;;;;;;5027900;28;25052;-70
2023/12/21 06:12:21;;;;;;;28.08;12.68;;;;;;;;;;5024047;28;25068;-70
2023/12/21 06:14:48;;;;;;;28.65;11.65;;;;;;;;;;5028224;28;25075;-69
2023/12/21 06:17:14;;;;;;;25.55;11.85;;;;;;;;;;5018756;28;25070;-69
2023/12/21 06:19:41;;;;;;;36.78;12.98;;;;;;;;;;5028519;28;25058;-70
2023/12/21 06:22:07;;;;;;;31.65;11.68;;;;;;;;;;5028623;28;25103;-72
2023/12/21 06:24:33;;;;;;;26.40;11.25;;;;;;;;;;5027763;28;25057;-70
2023/12/21 06:26:59;;;;;;;24.20;11.75;;;;;;;;;;5023939;28;25170;-69
2023/12/21 06:29:25;;;;;;;21.67;11.00;;;;;;;;;;5031892;28;25048;-70
2023/12/21 06:31:52;;;;;;;22.67;12.02;;;;;;;;;;5038786;28;25077;-70
2023/12/21 06:34:19;;;;;;;23.00;11.60;;;;;;;;;;5033791;28;25066;-71
2023/12/21 06:36:46;;;;;;;25.73;11.23;;;;;;;;;;5036219;28;25073;-70
2023/12/21 06:39:15;;;;;;;17.73;10.82;;;;;;;;;;5025787;28;25071;-70
2023/12/21 06:41:41;;;;;;;20.08;10.10;;;;;;;;;;5022269;28;25108;-71
2023/12/21 06:44:10;;;;;;;21.48;11.35;;;;;;;;;;5032283;28;25077;-69
2023/12/21 06:46:36;;;;;;;21.48;11.68;;;;;;;;;;5035804;28;25057;-71
2023/12/21 06:49:02;;;;;;;23.85;11.38;;;;;;;;;;5035149;28;25069;-69
2023/12/21 06:51:28;;;;;;;23.88;12.40;;;;;;;;;;5035080;28;25188;-71
2023/12/21 06:53:54;;;;;;;27.48;11.38;;;;;;;;;;5038105;28;25084;-70
2023/12/21 06:56:20;;;;;;;24.15;12.15;;;;;;;;;;5036042;28;25155;-69
2023/12/21 06:58:46;;;;;;;29.80;12.68;;;;;;;;;;5031940;28;25084;-70
2023/12/21 07:01:12;;;;;;;25.60;11.45;;;;;;;;;;5038957;28;25065;-70
2023/12/21 07:03:38;;;;;;;22.85;11.35;;;;;;;;;;5033914;28;25065;-70
2023/12/21 07:06:04;;;;;;;26.35;11.27;;;;;;;;;;5035967;28;25073;-70
2023/12/21 07:08:30;;;;;;;33.63;14.35;;;;;;;;;;5041600;28;25084;-69
2023/12/21 07:10:56;;;;;;;28.42;12.27;;;;;;;;;;5042430;28;25060;-70
2023/12/21 07:13:22;;;;;;;34.22;12.48;;;;;;;;;;5033981;28;25068;-68
2023/12/21 07:15:48;;;;;;;27.35;13.77;;;;;;;;;;5031348;28;25076;-70
2023/12/21 07:18:14;;;;;;;33.80;14.32;;;;;;;;;;5038720;28;25062;-69
2023/12/21 07:20:41;;;;;;;30.38;18.33;;;;;;;;;;5034779;28;25057;-70
2023/12/21 07:23:07;;;;;;;44.10;18.70;;;;;;;;;;5036783;28;25065;-75
2023/12/21 07:25:33;;;;;;;35.13;20.95;;;;;;;;;;5038022;28;25068;-70
2023/12/21 07:27:59;;;;;;;32.90;19.98;;;;;;;;;;5033873;28;25132;-69
2023/12/21 07:30:24;;;;;;;30.48;19.33;;;;;;;;;;5032931;28;25120;-70
2023/12/21 07:32:50;;;;;;;38.80;20.10;;;;;;;;;;5030677;28;25133;-72
2023/12/21 07:35:16;;;;;;;31.23;18.33;;;;;;;;;;5031385;28;25121;-70
2023/12/21 07:37:42;;;;;;;30.85;18.75;;;;;;;;;;5028668;28;25080;-70
2023/12/21 07:40:08;;;;;;;39.85;19.67;;;;;;;;;;5030721;28;25146;-71
2023/12/21 07:42:34;;;;;;;31.85;19.50;;;;;;;;;;5028103;28;25070;-71
2023/12/21 07:45:00;;;;;;;42.20;19.88;;;;;;;;;;5029727;28;25097;-71
2023/12/21 07:47:26;;;;;;;35.97;19.80;;;;;;;;;;5031102;28;25130;-71
2023/12/21 07:49:52;;;;;;;38.00;20.88;;;;;;;;;;5022880;28;25129;-70
2023/12/21 07:52:18;;;;;;;38.42;18.38;;;;;;;;;;5027417;28;25114;-69
2023/12/21 07:54:44;;;;;;;30.80;18.00;;;;;;;;;;5026086;28;25066;-72
2023/12/21 07:57:10;;;;;;;28.40;17.50;;;;;;;;;;5023917;28;25059;-70
2023/12/21 07:59:37;;;;;;;35.88;18.65;;;;;;;;;;5022800;28;25100;-70
2023/12/21 08:02:02;;;;;;;33.97;17.95;;;;;;;;;;5019209;28;25128;-70
2023/12/21 08:04:28;;;;;;;29.13;17.70;;;;;;;;;;5024761;28;25064;-71
2023/12/21 08:06:55;;;;;;;30.50;17.48;;;;;;;;;;5019834;28;25068;-72
2023/12/21 08:09:20;;;;;;;33.88;17.95;;;;;;;;;;5027175;28;25079;-70
2023/12/21 08:11:46;;;;;;;24.92;17.80;;;;;;;;;;5024343;28;25090;-70
2023/12/21 08:14:13;;;;;;;34.10;16.80;;;;;;;;;;5023631;28;25059;-72
2023/12/21 08:16:39;;;;;;;27.27;18.38;;;;;;;;;;5023118;28;25072;-70
2023/12/21 08:19:06;;;;;;;27.75;17.48;;;;;;;;;;5026458;28;25090;-71
2023/12/21 08:21:32;;;;;;;36.55;17.85;;;;;;;;;;5026972;28;25055;-71
2023/12/21 08:23:58;;;;;;;24.98;17.08;;;;;;;;;;5025249;28;25067;-72
2023/12/21 08:26:24;;;;;;;31.58;17.70;;;;;;;;;;5024107;28;25069;-70
2023/12/21 08:28:50;;;;;;;33.17;17.05;;;;;;;;;;5023956;28;25078;-71
2023/12/21 08:31:26;;;;;;;38.55;16.85;;;;;;;;;;5025494;28;25080;-70
2023/12/21 08:33:52;;;;;;;25.40;16.98;;;;;;;;;;5027449;28;25075;-74
2023/12/21 08:36:18;;;;;;;29.23;16.42;;;;;;;;;;5030613;28;25067;-71
2023/12/21 08:38:44;;;;;;;41.35;16.73;;;;;;;;;;5032724;28;25059;-71
2023/12/21 08:41:10;;;;;;;25.98;15.70;;;;;;;;;;5030012;28;25093;-70
2023/12/21 08:43:39;;;;;;;31.52;15.90;;;;;;;;;;5031730;28;25061;-69
2023/12/21 08:46:05;;;;;;;39.10;17.90;;;;;;;;;;5026894;28;25054;-71
2023/12/21 08:48:31;;;;;;;27.63;17.40;;;;;;;;;;5022457;28;25152;-70
2023/12/21 08:50:57;;;;;;;26.65;18.05;;;;;;;;;;5021106;28;25059;-71
2023/12/21 08:53:23;;;;;;;29.48;16.67;;;;;;;;;;5023699;28;25056;-70
2023/12/21 08:55:49;;;;;;;33.33;17.10;;;;;;;;;;5023568;28;25141;-70
2023/12/21 08:58:15;;;;;;;28.30;17.27;;;;;;;;;;5022371;28;25069;-70
2023/12/21 09:00:41;;;;;;;28.35;16.08;;;;;;;;;;5026564;28;25047;-70
2023/12/21 09:03:07;;;;;;;34.95;18.38;;;;;;;;;;5025246;28;25106;-70
2023/12/21 09:05:34;;;;;;;31.58;17.85;;;;;;;;;;5023660;28;25066;-71
2023/12/21 09:08:00;;;;;;;22.75;16.42;;;;;;;;;;5024236;28;25057;-71
2023/12/21 09:10:26;;;;;;;25.75;16.88;;;;;;;;;;5025293;28;25085;-69
2023/12/21 09:12:52;;;;;;;25.08;16.95;;;;;;;;;;5024357;28;25086;-71
2023/12/21 09:15:18;;;;;;;32.97;16.70;;;;;;;;;;5019916;28;25054;-68
2023/12/21 09:17:45;;;;;;;33.13;16.15;;;;;;;;;;5023467;28;25105;-72
2023/12/21 09:20:13;;;;;;;30.30;16.30;;;;;;;;;;5019141;28;25053;-70
2023/12/21 09:22:39;;;;;;;27.25;16.23;;;;;;;;;;5020191;28;25072;-70
2023/12/21 09:25:05;;;;;;;19.60;14.88;;;;;;;;;;5022307;28;25070;-71
2023/12/21 09:27:32;;;;;;;30.75;15.75;;;;;;;;;;5022488;28;25098;-71
2023/12/21 09:29:58;;;;;;;29.45;14.13;;;;;;;;;;5017035;28;25069;-70
2023/12/21 09:32:24;;;;;;;34.30;14.60;;;;;;;;;;5019949;28;25154;-70
2023/12/21 09:34:50;;;;;;;21.65;13.80;;;;;;;;;;5020252;28;25077;-72
2023/12/21 09:37:16;;;;;;;27.48;14.70;;;;;;;;;;5023938;28;25084;-71
2023/12/21 09:39:42;;;;;;;29.15;13.98;;;;;;;;;;5018611;28;25057;-71
2023/12/21 09:42:10;;;;;;;26.50;13.70;;;;;;;;;;5023690;28;25071;-71
2023/12/21 09:44:37;;;;;;;24.45;12.75;;;;;;;;;;5021151;28;25065;-71
2023/12/21 09:47:07;;;;;;;25.08;12.80;;;;;;;;;;5019673;28;25079;-72
2023/12/21 09:49:36;;;;;;;22.77;13.18;;;;;;;;;;5018608;28;25066;-73
2023/12/21 09:52:04;;;;;;;25.42;13.27;;;;;;;;;;5020402;28;25080;-71
2023/12/21 09:54:30;;;;;;;21.95;12.85;;;;;;;;;;5019344;28;25138;-69
2023/12/21 09:56:57;;;;;;;22.45;12.60;;;;;;;;;;5019200;28;25066;-70
2023/12/21 09:59:26;;;;;;;24.92;12.07;;;;;;;;;;5019721;28;25109;-73
2023/12/21 10:01:52;;;;;;;24.58;14.60;;;;;;;;;;5020256;28;25050;-70
2023/12/21 10:04:18;;;;;;;24.65;14.88;;;;;;;;;;5018657;28;25068;-70
2023/12/21 10:06:44;;;;;;;20.60;15.27;;;;;;;;;;5018929;28;25055;-71
2023/12/21 10:09:12;;;;;;;31.67;15.30;;;;;;;;;;5020196;28;25054;-72
2023/12/21 10:11:38;;;;;;;20.17;15.60;;;;;;;;;;5024742;28;25061;-71
2023/12/21 10:14:07;;;;;;;19.02;14.25;;;;;;;;;;5023001;28;25055;-70
2023/12/21 10:16:35;;;;;;;22.92;14.60;;;;;;;;;;5022424;28;25188;-71
2023/12/21 10:19:00;;;;;;;20.30;14.82;;;;;;;;;;5021128;28;25065;-71
2023/12/21 10:21:26;;;;;;;17.65;15.93;;;;;;;;;;5016717;28;25054;-70
2023/12/21 10:23:54;;;;;;;20.23;15.73;;;;;;;;;;5022806;28;25165;-72
2023/12/21 10:26:19;;;;;;;19.88;16.02;;;;;;;;;;5021037;28;25070;-71
2023/12/21 10:28:46;;;;;;;24.08;15.88;;;;;;;;;;5023348;28;25120;-71
2023/12/21 10:31:13;;;;;;;17.83;15.02;;;;;;;;;;5025547;28;25078;-70
2023/12/21 10:33:41;;;;;;;22.15;15.55;;;;;;;;;;5022846;28;25080;-71
2023/12/21 10:36:07;;;;;;;24.60;15.23;;;;;;;;;;5020238;28;25085;-72
2023/12/21 10:38:33;;;;;;;23.10;16.42;;;;;;;;;;5016793;28;25123;-71
2023/12/21 10:41:05;;;;;;;28.73;17.25;;;;;;;;;;5020205;28;25133;-73
2023/12/21 10:43:31;;;;;;;24.58;16.08;;;;;;;;;;5020703;28;25059;-72
2023/12/21 10:45:57;;;;;;;28.15;17.02;;;;;;;;;;5023965;28;25087;-72
2023/12/21 10:48:24;;;;;;;24.30;15.77;;;;;;;;;;5025917;28;25098;-71
2023/12/21 10:50:51;;;;;;;18.35;14.75;;;;;;;;;;5019604;28;25059;-76
2023/12/21 10:53:18;;;;;;;22.45;15.45;;;;;;;;;;5014598;28;25106;-72
2023/12/21 10:55:45;;;;;;;18.30;15.93;;;;;;;;;;5018227;28;25075;-71
2023/12/21 10:58:12;;;;;;;23.05;15.73;;;;;;;;;;5024757;28;25094;-72
2023/12/21 11:00:38;;;;;;;24.27;16.63;;;;;;;;;;5029680;28;25056;-72
2023/12/21 11:03:07;;;;;;;19.92;14.90;;;;;;;;;;5028544;28;25063;-72
2023/12/21 11:05:33;;;;;;;16.02;14.63;;;;;;;;;;5028031;28;25109;-72
2023/12/21 11:08:00;;;;;;;17.20;15.40;;;;;;;;;;5027870;28;25073;-71
2023/12/21 11:10:26;;;;;;;19.98;15.13;;;;;;;;;;5026418;28;25067;-73
2023/12/21 11:12:52;;;;;;;23.85;15.23;;;;;;;;;;5025008;28;25079;-71
2023/12/21 11:15:19;;;;;;;18.73;14.23;;;;;;;;;;5030525;28;25060;-73
2023/12/21 11:17:56;;;;;;;21.15;15.20;;;;;;;;;;5026039;28;25072;-72
2023/12/21 11:20:25;;;;;;;21.25;14.73;;;;;;;;;;5026159;28;25084;-72
2023/12/21 11:22:52;;;;;;;18.80;14.82;;;;;;;;;;5025990;28;25145;-73
2023/12/21 11:25:22;;;;;;;18.38;13.18;;;;;;;;;;5028270;28;25084;-73
2023/12/21 11:27:48;;;;;;;22.73;14.23;;;;;;;;;;5029169;28;25110;-72
2023/12/21 11:30:15;;;;;;;16.27;14.60;;;;;;;;;;5033648;28;25048;-72
2023/12/21 11:32:46;;;;;;;22.33;13.95;;;;;;;;;;5026389;28;25066;-72
2023/12/21 11:35:21;;;;;;;21.30;14.05;;;;;;;;;;5025403;28;25072;-70
2023/12/21 11:37:57;;;;;;;23.45;14.23;;;;;;;;;;5025467;28;25080;-72
2023/12/21 11:40:23;;;;;;;21.33;13.93;;;;;;;;;;5030203;28;25074;-70
2023/12/21 11:42:50;;;;;;;15.85;13.40;;;;;;;;;;5024892;28;25139;-71
2023/12/21 11:45:23;;;;;;;18.50;11.10;;;;;;;;;;5028284;28;25088;-70
2023/12/21 11:47:50;;;;;;;22.38;12.20;;;;;;;;;;5026168;28;25077;-71
2023/12/21 11:50:18;;;;;;;14.30;11.73;;;;;;;;;;5027734;28;25092;-70
2023/12/21 11:52:44;;;;;;;18.60;12.38;;;;;;;;;;5026063;28;25068;-70
2023/12/21 11:55:10;;;;;;;21.45;12.60;;;;;;;;;;5030453;28;25134;-73
2023/12/21 11:57:39;;;;;;;18.88;11.70;;;;;;;;;;5025564;28;25082;-72
2023/12/21 12:00:09;;;;;;;14.10;11.40;;;;;;;;;;5027525;28;25057;-74
2023/12/21 12:02:35;;;;;;;15.43;10.63;;;;;;;;;;5028418;28;25049;-72
2023/12/21 12:05:02;;;;;;;17.80;10.60;;;;;;;;;;5023285;28;25063;-73
2023/12/21 12:07:29;;;;;;;22.17;11.05;;;;;;;;;;5026685;28;25082;-72
2023/12/21 12:09:55;;;;;;;21.27;10.80;;;;;;;;;;5028590;28;25098;-72
2023/12/21 12:12:21;;;;;;;16.98;10.55;;;;;;;;;;5019588;28;25169;-73
2023/12/21 12:14:47;;;;;;;16.75;10.07;;;;;;;;;;5030068;28;25136;-70
2023/12/21 12:17:13;;;;;;;21.15;10.88;;;;;;;;;;5038482;28;25048;-71
2023/12/21 12:19:39;;;;;;;20.27;9.63;;;;;;;;;;5040492;28;25094;-71
2023/12/21 12:22:05;;;;;;;19.35;10.40;;;;;;;;;;5025518;28;25133;-72
2023/12/21 12:24:31;;;;;;;14.02;9.35;;;;;;;;;;5020769;28;25107;-72
2023/12/21 12:26:57;;;;;;;13.90;9.82;;;;;;;;;;5032875;28;25078;-73
2023/12/21 12:29:23;;;;;;;16.30;9.13;;;;;;;;;;5034965;28;25075;-72
2023/12/21 12:31:49;;;;;;;13.18;10.15;;;;;;;;;;5040997;28;25078;-71
2023/12/21 12:34:16;;;;;;;24.88;10.13;;;;;;;;;;5033617;28;25081;-73
2023/12/21 12:36:42;;;;;;;25.33;10.15;;;;;;;;;;5021620;28;25077;-71
2023/12/21 12:39:11;;;;;;;26.60;10.82;;;;;;;;;;5021228;28;25114;-73
2023/12/21 12:41:38;;;;;;;20.85;10.45;;;;;;;;;;5022646;28;25050;-73
2023/12/21 12:44:04;;;;;;;23.75;11.20;;;;;;;;;;5019964;28;25053;-72
2023/12/21 12:46:30;;;;;;;19.95;9.27;;;;;;;;;;5024459;28;25059;-70
2023/12/21 12:48:57;;;;;;;18.50;10.27;;;;;;;;;;5022658;28;25101;-71
2023/12/21 12:51:23;;;;;;;18.33;9.13;;;;;;;;;;5019958;28;25099;-72
2023/12/21 12:53:51;;;;;;;22.73;10.68;;;;;;;;;;5023010;28;25155;-71
2023/12/21 12:56:17;;;;;;;21.90;13.13;;;;;;;;;;5019530;28;25068;-71
2023/12/21 12:58:43;;;;;;;20.35;12.73;;;;;;;;;;5019274;28;25075;-71
2023/12/21 13:01:09;;;;;;;21.23;12.85;;;;;;;;;;5025274;28;25052;-71
2023/12/21 13:03:35;;;;;;;17.70;12.55;;;;;;;;;;5017092;28;25062;-72
2023/12/21 13:06:01;;;;;;;23.10;11.98;;;;;;;;;;5023377;28;25093;-69
2023/12/21 13:08:28;;;;;;;11.20;9.13;;;;;;;;;;5020530;28;25132;-71
2023/12/21 13:10:54;;;;;;;13.90;7.25;;;;;;;;;;5019760;28;25136;-72
2023/12/21 13:13:20;;;;;;;15.07;8.90;;;;;;;;;;5018550;28;25154;-71
2023/12/21 13:15:46;;;;;;;21.27;9.80;;;;;;;;;;5016943;28;25144;-72
2023/12/21 13:18:12;;;;;;;20.25;9.75;;;;;;;;;;5024467;28;25080;-71
2023/12/21 13:20:38;;;;;;;21.58;10.40;;;;;;;;;;5022765;28;25092;-71
2023/12/21 13:23:04;;;;;;;26.27;12.18;;;;;;;;;;5020398;28;25088;-71
2023/12/21 13:25:30;;;;;;;43.28;11.70;;;;;;;;;;5023349;28;25063;-71
2023/12/21 13:27:56;;;;;;;29.52;12.27;;;;;;;;;;5022275;28;25073;-71
2023/12/21 13:30:23;;;;;;;30.48;11.93;;;;;;;;;;5025011;28;25086;-69
2023/12/21 13:32:49;;;;;;;27.23;11.20;;;;;;;;;;5023753;28;25077;-70
2023/12/21 13:35:17;;;;;;;32.13;11.48;;;;;;;;;;5029280;28;25064;-71
2023/12/21 13:37:43;;;;;;;25.30;12.25;;;;;;;;;;5021514;28;25062;-71
2023/12/21 13:40:09;;;;;;;23.85;11.23;;;;;;;;;;5023747;28;25092;-71
2023/12/21 13:42:35;;;;;;;22.27;10.55;;;;;;;;;;5023081;28;25053;-70
2023/12/21 13:45:04;;;;;;;30.75;12.88;;;;;;;;;;5023992;28;25138;-71
2023/12/21 13:47:32;;;;;;;23.15;11.90;;;;;;;;;;5024541;28;25168;-71
2023/12/21 13:49:58;;;;;;;38.65;12.82;;;;;;;;;;5025903;28;25079;-71
2023/12/21 13:52:24;;;;;;;34.58;11.25;;;;;;;;;;5023903;28;25065;-70
2023/12/21 13:54:51;;;;;;;18.08;10.98;;;;;;;;;;5024055;28;25060;-73
2023/12/21 13:57:18;;;;;;;28.70;13.50;;;;;;;;;;5021780;28;25054;-70
2023/12/21 13:59:43;;;;;;;30.00;12.68;;;;;;;;;;5023162;28;25116;-70
2023/12/21 14:02:09;;;;;;;29.88;13.32;;;;;;;;;;5020232;28;25091;-70
2023/12/21 14:04:35;;;;;;;36.65;12.32;;;;;;;;;;5019031;28;25059;-72
2023/12/21 14:07:01;;;;;;;28.20;11.27;;;;;;;;;;5018371;28;25163;-73
2023/12/21 14:09:29;;;;;;;31.52;13.07;;;;;;;;;;5024963;28;25068;-74
2023/12/21 14:11:55;;;;;;;23.77;10.48;;;;;;;;;;5020643;28;25106;-71
2023/12/21 14:14:21;;;;;;;24.63;10.52;;;;;;;;;;5017761;28;25115;-71